Palmer, AK (99645)

5:00 AM AKDT on July 27, 2016 (GMT -0800)
Cedar Hills | | Change Station

Elev 500 ft 61.62 °N, 149.12 °W | Updated 3 minutes ago

Overcast
Overcast
52.7 °F
Feels Like 52.7 °F
N
4.2
Wind Variable Wind from WSW

Today
High -- | Low -- °F
--% Chance of Precip.
Yesterday
High -- | Low -- °F
Precip. -- in
Pressure 29.88 in
Visibility 10.0 miles
Clouds Mostly Cloudy 10000 ft
Overcast 11000 ft
Dew Point 51 °F
Humidity 93%
Rainfall 0.00 in
Snow Depth Not available.
5:14 AM 10:49 PM
Last Quarter, 43% visible
METAR PAAQ 271253Z AUTO 35006KT 10SM BKN100 OVC110 12/09 A2987 RMK AO2 SLP116 T01220094 TSNO
Pressure 29.88 in
Visibility 10.0 miles
Clouds Mostly Cloudy 10000 ft
Overcast 11000 ft
Dew Point 51 °F
Humidity 93%
Rainfall 0.00 in
Snow Depth Not available.
5:14 AM 10:49 PM
Last Quarter, 43% visible
METAR PAAQ 271253Z AUTO 35006KT 10SM BKN100 OVC110 12/09 A2987 RMK AO2 SLP116 T01220094 TSNO

10-Day Weather Forecast

Almanac

Astronomy

Jul. 27, 2016 Rise Set
Actual Time
Civil Twilight
Nautical Twilight
Astronomical Twilight
Moon
Length of Visible Light
Length of Day
Tomorrow will be .
, % of the Moon is Illuminated

Today's Extremes

State Highs State Lows

Community

WunderPhotos

Upload Photos

1,927,841 photos uploaded!

WunderBlog® & News

Nearby

Air Quality

  Air Quality AQ Index Pollutant
Not available.

Snow Depth

Station Depth Elevation

Earthquake Activity

City Distance Mag. Time & Date
Minimum magnitude displayed is 2.5.

Coastal Water Temperatures

Place Temperature

Stations

Nearby Weather Stations

Station Location Temp. Windchill Dew Point Humidity Wind Precip. Elev Updated Type
                   

Watches & Warnings

There are currently no watches in effect.